Urb Stella, Puerto Rico
Current Conditions -  °F | °C
As of 3:50 AM on Friday 28 Nov 2014 (Local Time) from TJBQ Reporting Station
Clear Clear  
Wind Chill: 70°   Ceiling: Unl
Heat Index: 70°   Visibility: 10mi
Dew Point: 64°   Wind: 5mph
Humidity: 83%   Direction: 150°SSE
Pressure: 29.93"   Gusts: NA
Location:  18.0206°N, 66.7913°W
Report Text: TJBQ 280750Z 15004KT 10SM SKC 21/18 A2993 RMK TWR CLOSED UNTIL 1100Z
Loading
Personal Weather Stations






























Interactive Weather Map New forecast layout! Learn more

10-Day Weather Forecast

Advertisements
Track Severe Weather on mobile